Time;durP1;ratioP1;P1;durP2;ratioP2;P2;SDS_P1;SDS_P2;PMS_P1;PMS_P2;Temp;Humidity;BMP_temperature;BMP_pressure;BME280_temperature;BME280_humidity;BME280_pressure;Samples;Min_cycle;Max_cycle;Signal;HPM_P1;HPM_P2
2023/04/03 00:02:20;;;;;;;2.05;0.75;;;4.60;99.90;;;;;;7401862;19;19923;-76
2023/04/03 00:04:50;;;;;;;3.75;0.80;;;3.70;99.90;;;;;;7401371;19;20005;-77
2023/04/03 00:07:19;;;;;;;2.03;0.50;;;;;;;;;;7402039;19;19926;-77
2023/04/03 00:09:48;;;;;;;3.05;0.45;;;4.20;99.90;;;;;;7401234;19;19930;-77
2023/04/03 00:12:19;;;;;;;1.02;0.30;;;4.70;99.90;;;;;;7401170;19;19922;-77
2023/04/03 00:14:48;;;;;;;2.42;0.68;;;4.80;99.90;;;;;;7400076;19;19940;-77
2023/04/03 00:17:17;;;;;;;2.45;0.68;;;5.10;99.90;;;;;;7402856;19;19934;-77
2023/04/03 00:19:48;;;;;;;1.38;0.52;;;4.50;99.90;;;;;;7401105;19;19925;-77
2023/04/03 00:22:22;;;;;;;1.52;0.35;;;4.40;99.90;;;;;;7401293;19;19928;-78
2023/04/03 00:24:51;;;;;;;2.22;0.50;;;4.30;99.90;;;;;;7400910;19;20352;-77
2023/04/03 00:27:23;;;;;;;2.90;0.70;;;4.30;99.90;;;;;;7399074;19;19943;-77
2023/04/03 00:29:52;;;;;;;1.17;0.63;;;3.50;99.90;;;;;;7402347;19;19925;-77
2023/04/03 00:32:21;;;;;;;0.40;0.28;;;4.50;99.90;;;;;;7399770;19;19919;-77
2023/04/03 00:34:57;;;;;;;2.55;0.63;;;4.10;99.90;;;;;;7399229;19;19915;-76
2023/04/03 00:37:26;;;;;;;1.35;0.50;;;;;;;;;;7398483;19;20278;-77
2023/04/03 00:39:55;;;;;;;1.05;0.40;;;3.70;99.90;;;;;;7399764;19;19918;-77
2023/04/03 00:42:27;;;;;;;0.77;0.40;;;5.00;99.90;;;;;;7400088;19;20312;-77
2023/04/03 00:45:26;;;;;;;1.42;0.50;;;4.20;99.90;;;;;;7399833;19;19932;-77
2023/04/03 00:47:59;;;;;;;0.80;0.50;;;3.20;99.90;;;;;;7405639;19;20280;-76
2023/04/03 00:50:29;;;;;;;2.92;0.63;;;3.80;99.90;;;;;;7406006;19;19926;-77
2023/04/03 00:52:59;;;;;;;1.75;0.88;;;3.80;99.90;;;;;;7404669;19;19926;-77
2023/04/03 00:55:28;;;;;;;1.38;0.52;;;4.40;99.90;;;;;;7408511;19;19964;-77
2023/04/03 00:58:01;;;;;;;2.15;0.70;;;4.20;99.90;;;;;;7406641;19;19919;-76
2023/04/03 01:00:31;;;;;;;1.35;0.60;;;4.00;99.90;;;;;;7405577;19;19923;-77
2023/04/03 01:03:00;;;;;;;2.20;0.65;;;4.00;99.90;;;;;;7406893;19;19950;-75
2023/04/03 01:05:29;;;;;;;4.00;0.80;;;4.30;99.90;;;;;;7406627;19;20030;-77
2023/04/03 01:08:00;;;;;;;6.90;1.23;;;4.50;99.90;;;;;;7403501;19;19919;-77
2023/04/03 01:10:37;;;;;;;1.48;0.60;;;;;;;;;;7404166;19;19946;-77
2023/04/03 01:13:21;;;;;;;2.20;0.70;;;4.00;99.90;;;;;;7406201;19;19942;-76
2023/04/03 01:15:50;;;;;;;2.40;0.60;;;3.00;99.90;;;;;;7403808;19;19923;-77
2023/04/03 01:18:19;;;;;;;2.47;0.60;;;3.30;99.90;;;;;;7405379;19;20328;-77
2023/04/03 01:21:24;;;;;;;3.38;0.90;;;3.20;99.90;;;;;;7405706;19;19922;-77
2023/04/03 01:24:15;;;;;;;7.20;0.93;;;3.10;99.90;;;;;;7404721;19;20284;-77
2023/04/03 01:26:45;;;;;;;2.53;0.60;;;4.10;99.90;;;;;;7404154;19;19922;-77
2023/04/03 01:29:17;;;;;;;2.85;0.63;;;3.70;99.90;;;;;;7404881;19;20296;-77
2023/04/03 01:31:51;;;;;;;4.47;1.15;;;4.00;99.90;;;;;;7402979;19;20352;-77
2023/04/03 01:34:21;;;;;;;1.67;0.63;;;2.60;99.90;;;;;;7404423;19;19923;-76
2023/04/03 01:36:51;;;;;;;2.92;0.80;;;2.70;99.90;;;;;;7402932;19;20312;-77
2023/04/03 01:39:21;;;;;;;3.05;0.98;;;3.50;99.90;;;;;;7405557;19;19950;-77
2023/04/03 01:41:51;;;;;;;2.40;0.82;;;3.20;99.90;;;;;;7404904;19;20291;-77
2023/04/03 01:44:19;;;;;;;4.38;0.70;;;2.90;99.90;;;;;;7403509;19;20267;-77
2023/04/03 01:46:51;;;;;;;2.38;1.10;;;2.80;99.90;;;;;;7404859;19;19953;-77
2023/04/03 01:49:20;;;;;;;4.63;0.93;;;2.90;99.90;;;;;;7404742;19;19922;-77
2023/04/03 01:51:49;;;;;;;2.65;0.70;;;2.70;99.90;;;;;;7404590;19;19941;-77
2023/04/03 01:54:18;;;;;;;2.30;0.63;;;3.60;99.90;;;;;;7402273;19;19989;-77
2023/04/03 01:56:47;;;;;;;3.50;0.80;;;2.70;99.90;;;;;;7405145;19;19918;-77
2023/04/03 01:59:16;;;;;;;2.13;0.60;;;3.70;99.90;;;;;;7403558;19;19927;-77
2023/04/03 02:01:46;;;;;;;4.88;0.82;;;3.80;99.90;;;;;;7403150;19;19926;-77
2023/04/03 02:04:18;;;;;;;5.63;1.23;;;3.10;99.90;;;;;;7404263;19;19926;-77
2023/04/03 02:06:47;;;;;;;2.08;0.75;;;3.30;99.90;;;;;;7402704;19;19935;-76
2023/04/03 02:09:15;;;;;;;4.18;1.00;;;2.40;99.90;;;;;;7405437;19;19982;-77
2023/04/03 02:11:45;;;;;;;3.53;0.70;;;3.90;99.90;;;;;;7403810;19;20357;-76
2023/04/03 02:14:15;;;;;;;6.72;0.90;;;2.20;99.90;;;;;;7403921;19;19925;-76
2023/04/03 02:16:47;;;;;;;1.88;0.45;;;;;;;;;;7402608;19;19938;-76
2023/04/03 02:19:18;;;;;;;4.30;0.98;;;3.80;99.90;;;;;;7403454;19;19929;-76
2023/04/03 02:21:48;;;;;;;1.58;1.08;;;3.70;99.90;;;;;;7403639;19;20270;-76
2023/04/03 02:24:17;;;;;;;2.35;0.95;;;2.50;99.90;;;;;;7403171;19;19934;-76
2023/04/03 02:26:47;;;;;;;4.10;1.08;;;2.50;99.90;;;;;;7406008;19;20274;-75
2023/04/03 02:29:16;;;;;;;1.90;0.65;;;3.00;99.90;;;;;;7406357;19;19918;-76
2023/04/03 02:31:45;;;;;;;1.10;0.68;;;2.40;99.90;;;;;;7406050;19;19926;-76
2023/04/03 02:34:14;;;;;;;2.00;0.82;;;2.70;99.90;;;;;;7404952;19;19929;-76
2023/04/03 02:36:46;;;;;;;3.35;0.80;;;2.00;99.90;;;;;;7406128;19;20017;-76
2023/04/03 02:39:16;;;;;;;2.33;0.80;;;3.20;99.90;;;;;;7404872;19;19915;-77
2023/04/03 02:41:45;;;;;;;2.25;1.10;;;1.80;99.90;;;;;;7406489;19;19926;-77
2023/04/03 02:44:15;;;;;;;4.85;0.90;;;3.10;99.90;;;;;;7404665;19;20037;-76
2023/04/03 02:46:44;;;;;;;1.42;0.90;;;;;;;;;;7407898;19;19943;-76
2023/04/03 02:49:13;;;;;;;1.95;1.00;;;3.00;99.90;;;;;;7404655;19;20683;-77
2023/04/03 02:51:45;;;;;;;1.63;0.70;;;2.00;99.90;;;;;;7405229;19;19978;-75
2023/04/03 02:54:14;;;;;;;3.47;0.90;;;1.80;99.90;;;;;;7402650;19;20266;-76
2023/04/03 02:56:43;;;;;;;4.05;1.48;;;2.00;99.90;;;;;;7403949;19;19946;-76
2023/04/03 02:59:19;;;;;;;2.25;0.57;;;2.30;99.90;;;;;;7402376;19;19914;-77
2023/04/03 03:01:49;;;;;;;4.13;0.90;;;2.60;99.90;;;;;;7406091;19;19934;-76
2023/04/03 03:04:18;;;;;;;5.63;0.90;;;2.50;99.90;;;;;;7405658;19;20253;-76
2023/04/03 03:06:50;;;;;;;1.85;0.70;;;1.60;99.90;;;;;;7402248;19;19914;-76
2023/04/03 03:09:20;;;;;;;1.23;0.73;;;1.60;99.90;;;;;;7401037;19;19934;-76
2023/04/03 03:11:49;;;;;;;4.68;1.23;;;1.70;99.90;;;;;;7401393;19;19931;-76
2023/04/03 03:14:18;;;;;;;4.45;1.02;;;1.80;99.90;;;;;;7400860;19;19918;-76
2023/04/03 03:16:47;;;;;;;2.08;0.70;;;1.70;99.90;;;;;;7401584;19;19937;-76
2023/04/03 03:19:16;;;;;;;0.98;0.60;;;2.80;99.90;;;;;;7400854;19;20293;-76
2023/04/03 03:21:46;;;;;;;3.33;0.98;;;;;;;;;;7401410;19;19915;-76
2023/04/03 03:24:18;;;;;;;1.70;0.63;;;1.30;99.90;;;;;;7401187;19;19910;-76
2023/04/03 03:26:47;;;;;;;3.65;1.00;;;2.70;99.90;;;;;;7400442;19;20019;-77
2023/04/03 03:29:16;;;;;;;1.75;0.65;;;2.50;99.90;;;;;;7401310;19;19937;-76
2023/04/03 03:31:45;;;;;;;1.80;0.93;;;1.90;99.90;;;;;;7401301;19;20319;-76
2023/04/03 03:34:14;;;;;;;2.95;1.20;;;;;;;;;;7403462;19;19911;-76
2023/04/03 03:36:43;;;;;;;4.47;1.05;;;2.20;99.90;;;;;;7398073;19;19923;-76
2023/04/03 03:39:12;;;;;;;2.95;1.17;;;2.70;99.90;;;;;;7400451;19;19978;-76
2023/04/03 03:41:45;;;;;;;2.55;1.10;;;1.90;99.90;;;;;;7401012;19;19946;-76
2023/04/03 03:44:14;;;;;;;3.30;0.80;;;1.30;99.90;;;;;;7401468;19;19929;-77
2023/04/03 03:46:43;;;;;;;2.55;0.90;;;1.80;99.90;;;;;;7402480;19;19922;-76
2023/04/03 03:49:12;;;;;;;3.50;1.10;;;1.50;99.90;;;;;;7404691;19;19926;-76
2023/04/03 03:51:42;;;;;;;4.50;1.08;;;2.40;99.90;;;;;;7403489;19;19935;-76
2023/04/03 03:54:12;;;;;;;4.28;0.90;;;1.90;99.90;;;;;;7402866;19;19948;-76
2023/04/03 03:56:41;;;;;;;1.70;0.90;;;;;;;;;;7403943;19;19946;-77
2023/04/03 03:59:15;;;;;;;3.67;1.10;;;2.00;99.90;;;;;;7402361;19;19957;-76
2023/04/03 04:01:44;;;;;;;3.40;1.02;;;1.20;99.90;;;;;;7401490;19;19922;-76
2023/04/03 04:04:13;;;;;;;1.77;0.80;;;2.20;99.90;;;;;;7401183;19;20025;-77
2023/04/03 04:06:42;;;;;;;2.40;1.20;;;2.10;99.90;;;;;;7401733;19;20364;-76
2023/04/03 04:09:11;;;;;;;5.32;1.17;;;1.10;99.90;;;;;;7399937;19;19942;-76
2023/04/03 04:11:41;;;;;;;3.88;1.10;;;1.00;99.90;;;;;;7401669;19;19926;-76
2023/04/03 04:14:13;;;;;;;3.05;1.20;;;2.00;99.90;;;;;;7401959;19;19919;-76
2023/04/03 04:16:42;;;;;;;4.22;1.10;;;1.60;99.90;;;;;;7399137;19;19939;-77
2023/04/03 04:19:11;;;;;;;4.25;1.25;;;1.80;99.90;;;;;;7400262;19;19947;-76
2023/04/03 04:21:41;;;;;;;5.65;1.35;;;1.40;99.90;;;;;;7399556;19;19933;-76
2023/04/03 04:24:13;;;;;;;3.53;1.05;;;1.90;99.90;;;;;;7401111;19;19977;-75
2023/04/03 04:26:42;;;;;;;2.88;0.82;;;1.40;99.90;;;;;;7402124;19;19918;-76
2023/04/03 04:29:14;;;;;;;2.75;0.95;;;1.70;99.90;;;;;;7401010;19;19923;-76
2023/04/03 04:31:43;;;;;;;4.28;1.35;;;;;;;;;;7401091;19;19994;-76
2023/04/03 04:34:12;;;;;;;1.77;0.93;;;1.20;99.90;;;;;;7400830;19;19974;-76
2023/04/03 04:36:48;;;;;;;3.15;1.15;;;;;;;;;;7399641;19;20397;-76
2023/04/03 04:39:17;;;;;;;3.13;0.85;;;0.80;99.90;;;;;;7401161;19;19926;-76
2023/04/03 04:41:46;;;;;;;3.60;1.10;;;0.90;99.90;;;;;;7400096;19;19927;-76
2023/04/03 04:44:18;;;;;;;4.22;1.40;;;0.70;99.90;;;;;;7400281;19;19930;-76
2023/04/03 04:46:47;;;;;;;3.83;1.00;;;1.80;99.90;;;;;;7401416;19;19926;-76
2023/04/03 04:49:20;;;;;;;6.38;1.10;;;1.00;99.90;;;;;;7401215;19;19923;-76
2023/04/03 04:51:49;;;;;;;2.58;1.20;;;1.10;99.90;;;;;;7398785;19;19926;-76
2023/04/03 04:54:19;;;;;;;5.82;1.15;;;1.80;99.90;;;;;;7400042;19;19918;-76
2023/04/03 04:56:48;;;;;;;3.55;1.08;;;0.70;99.90;;;;;;7401024;19;19926;-76
2023/04/03 04:59:19;;;;;;;2.58;1.27;;;1.60;99.90;;;;;;7400588;19;20280;-76
2023/04/03 05:01:48;;;;;;;2.55;1.05;;;0.90;99.90;;;;;;7399350;19;19923;-75
2023/04/03 05:04:17;;;;;;;3.35;0.85;;;0.90;99.90;;;;;;7399576;19;19931;-77
2023/04/03 05:06:46;;;;;;;3.38;1.33;;;1.30;99.90;;;;;;7399207;19;20007;-76
2023/04/03 05:09:16;;;;;;;8.10;1.55;;;1.70;99.90;;;;;;7400009;19;19922;-76
2023/04/03 05:11:45;;;;;;;3.33;1.00;;;;;;;;;;7399227;19;19922;-76
2023/04/03 05:14:14;;;;;;;5.25;1.08;;;1.30;99.90;;;;;;7399070;19;20415;-77
2023/04/03 05:16:46;;;;;;;6.28;1.33;;;1.60;99.90;;;;;;7398232;19;20372;-76
2023/04/03 05:19:15;;;;;;;2.85;1.08;;;1.40;99.90;;;;;;7399870;19;19945;-75
2023/04/03 05:21:45;;;;;;;3.63;1.40;;;;;;;;;;7398453;19;19922;-76
2023/04/03 05:24:14;;;;;;;4.78;1.67;;;1.40;99.90;;;;;;7398016;19;19922;-76
2023/04/03 05:26:44;;;;;;;5.40;1.20;;;1.90;99.90;;;;;;7396204;19;19924;-76
2023/04/03 05:29:13;;;;;;;3.45;1.20;;;1.40;99.90;;;;;;7398669;19;19923;-76
2023/04/03 05:31:42;;;;;;;5.28;1.55;;;2.00;99.90;;;;;;7398873;19;19926;-76
2023/04/03 05:34:13;;;;;;;3.30;1.30;;;1.30;99.90;;;;;;7400379;19;19922;-76
2023/04/03 05:36:42;;;;;;;3.28;1.48;;;1.40;99.90;;;;;;7400309;19;20317;-76
2023/04/03 05:39:11;;;;;;;4.03;1.33;;;1.30;99.90;;;;;;7404904;19;19925;-75
2023/04/03 05:41:41;;;;;;;5.93;1.50;;;;;;;;;;7407689;19;19930;-76
2023/04/03 05:44:11;;;;;;;8.60;1.85;;;0.90;99.90;;;;;;7404659;19;19939;-75
2023/04/03 05:46:41;;;;;;;5.82;1.23;;;1.90;99.90;;;;;;7406065;19;19923;-76
2023/04/03 05:49:12;;;;;;;3.30;1.67;;;0.70;99.90;;;;;;7405946;19;20285;-76
2023/04/03 05:51:42;;;;;;;5.65;1.40;;;1.70;99.90;;;;;;7405749;19;19927;-76
2023/04/03 05:54:16;;;;;;;5.15;1.20;;;1.20;99.90;;;;;;7406491;19;19922;-75
2023/04/03 05:56:45;;;;;;;2.45;0.95;;;0.40;99.90;;;;;;7405425;19;19927;-75
2023/04/03 05:59:14;;;;;;;6.20;1.00;;;1.60;99.90;;;;;;7405775;19;20329;-74
2023/04/03 06:01:43;;;;;;;5.80;1.55;;;1.90;99.90;;;;;;7401404;19;19975;-75
2023/04/03 06:04:15;;;;;;;3.88;1.20;;;1.90;99.90;;;;;;7404945;19;20509;-74
2023/04/03 06:06:51;;;;;;;2.42;1.05;;;2.10;99.90;;;;;;7403681;19;20366;-75
2023/04/03 06:09:21;;;;;;;7.65;1.70;;;1.90;99.90;;;;;;7404300;19;19922;-75
2023/04/03 06:11:51;;;;;;;5.55;1.23;;;1.60;99.90;;;;;;7404351;19;19919;-75
2023/04/03 06:14:20;;;;;;;2.55;1.10;;;1.90;99.90;;;;;;7404370;19;19978;-75
2023/04/03 06:16:49;;;;;;;4.30;1.85;;;1.90;99.90;;;;;;7403804;19;19914;-75
2023/04/03 06:19:20;;;;;;;3.50;1.15;;;1.50;99.90;;;;;;7403969;19;19923;-76
2023/04/03 06:21:50;;;;;;;5.40;1.80;;;1.40;99.90;;;;;;7404380;19;20426;-75
2023/04/03 06:24:21;;;;;;;3.65;1.73;;;2.20;99.90;;;;;;7402973;19;19918;-75
2023/04/03 06:27:05;;;;;;;3.95;1.40;;;1.70;99.90;;;;;;7405144;19;19933;-75
2023/04/03 06:29:35;;;;;;;4.05;1.33;;;;;;;;;;7403259;19;19919;-76
2023/04/03 06:32:04;;;;;;;3.13;1.10;;;1.40;99.90;;;;;;7403063;19;19922;-75
2023/04/03 06:34:36;;;;;;;1.95;0.95;;;1.60;99.90;;;;;;7403189;19;19926;-76
2023/04/03 06:37:05;;;;;;;3.63;1.10;;;1.00;99.90;;;;;;7398972;19;19929;-75
2023/04/03 06:39:34;;;;;;;9.18;1.77;;;1.00;99.90;;;;;;7405358;19;19919;-75
2023/04/03 06:42:03;;;;;;;5.85;1.40;;;1.80;99.90;;;;;;7404993;19;20364;-75
2023/04/03 06:44:34;;;;;;;3.25;1.50;;;1.00;99.90;;;;;;7401516;19;20493;-76
2023/04/03 06:47:03;;;;;;;5.60;1.42;;;;;;;;;;7404431;19;19922;-76
2023/04/03 06:49:36;;;;;;;5.57;1.75;;;2.00;99.90;;;;;;7403933;19;20376;-75
2023/04/03 06:52:06;;;;;;;4.88;1.77;;;2.70;99.90;;;;;;7404431;19;20313;-76
2023/04/03 06:54:35;;;;;;;4.38;1.30;;;1.20;99.90;;;;;;7403332;19;19926;-76
2023/04/03 06:57:11;;;;;;;6.43;1.30;;;2.60;99.90;;;;;;7399468;19;19953;-76
2023/04/03 06:59:40;;;;;;;6.22;1.60;;;2.60;99.90;;;;;;7403018;19;19957;-75
2023/04/03 07:02:09;;;;;;;6.53;1.58;;;;;;;;;;7404158;19;19923;-76
2023/04/03 07:04:41;;;;;;;9.77;1.85;;;1.70;99.90;;;;;;7403468;19;20247;-76
2023/04/03 07:07:10;;;;;;;3.00;1.20;;;3.00;99.90;;;;;;7401171;19;19926;-76
2023/04/03 07:09:39;;;;;;;6.30;1.48;;;2.00;99.90;;;;;;7403059;19;19919;-76
2023/04/03 07:12:09;;;;;;;5.57;1.30;;;;;;;;;;7402598;19;19934;-76
2023/04/03 07:14:38;;;;;;;5.65;1.60;;;;;;;;;;7402695;19;19967;-76
2023/04/03 07:17:07;;;;;;;5.13;1.73;;;1.80;99.90;;;;;;7398711;19;19998;-76
2023/04/03 07:19:36;;;;;;;6.68;1.95;;;;;;;;;;7395869;19;19935;-76
2023/04/03 07:22:08;;;;;;;4.35;1.55;;;1.90;99.90;;;;;;7399819;19;19922;-75
2023/04/03 07:24:37;;;;;;;2.83;1.55;;;2.50;99.90;;;;;;7401388;19;20031;-76
2023/04/03 07:27:08;;;;;;;4.47;1.40;;;3.10;99.90;;;;;;7402469;19;20649;-75
2023/04/03 07:29:37;;;;;;;4.20;1.65;;;2.40;99.90;;;;;;7403085;19;19934;-76
2023/04/03 07:32:07;;;;;;;5.03;1.75;;;3.00;99.90;;;;;;7403097;19;19962;-75
2023/04/03 07:34:36;;;;;;;2.10;1.02;;;1.70;99.90;;;;;;7402485;19;20360;-75
2023/04/03 07:37:08;;;;;;;10.70;1.88;;;2.10;99.90;;;;;;7397917;19;19919;-76
2023/04/03 07:39:38;;;;;;;3.80;1.20;;;3.30;99.90;;;;;;7402789;19;19923;-76
2023/04/03 07:42:07;;;;;;;4.72;1.25;;;3.10;99.90;;;;;;7401350;19;19927;-75
2023/04/03 07:44:37;;;;;;;4.63;1.67;;;3.00;99.90;;;;;;7401557;19;20370;-75
2023/04/03 07:47:06;;;;;;;6.32;1.80;;;3.60;99.90;;;;;;7403097;19;19918;-76
2023/04/03 07:49:37;;;;;;;3.72;1.58;;;2.30;99.90;;;;;;7401095;19;20581;-75
2023/04/03 07:52:09;;;;;;;3.17;1.23;;;3.00;99.90;;;;;;7402112;19;19966;-75
2023/04/03 07:54:39;;;;;;;6.78;1.13;;;3.00;99.90;;;;;;7403097;19;19922;-76
2023/04/03 07:57:08;;;;;;;3.42;1.42;;;2.10;99.90;;;;;;7397476;19;20015;-76
2023/04/03 07:59:36;;;;;;;2.55;0.98;;;3.50;99.90;;;;;;7400799;19;19986;-75
2023/04/03 08:02:06;;;;;;;4.10;1.30;;;3.20;99.90;;;;;;7402057;19;19918;-75
2023/04/03 08:04:35;;;;;;;3.45;1.33;;;3.70;99.90;;;;;;7401717;19;20010;-75
2023/04/03 08:07:04;;;;;;;4.32;1.35;;;2.60;99.90;;;;;;7400711;19;20356;-74
2023/04/03 08:09:36;;;;;;;4.60;1.20;;;2.70;99.90;;;;;;7402139;19;19950;-75
2023/04/03 08:12:05;;;;;;;3.25;1.35;;;3.90;99.90;;;;;;7401995;19;19928;-74
2023/04/03 08:14:34;;;;;;;4.35;1.13;;;;;;;;;;7396839;19;20348;-72
2023/04/03 08:17:04;;;;;;;5.95;1.23;;;4.10;99.90;;;;;;7398626;19;19926;-72
2023/04/03 08:19:34;;;;;;;4.03;1.10;;;3.10;99.90;;;;;;7401892;19;19958;-72
2023/04/03 08:22:03;;;;;;;7.03;1.23;;;4.10;99.90;;;;;;7399819;19;19923;-72
2023/04/03 08:24:35;;;;;;;4.95;1.17;;;4.10;99.90;;;;;;7400609;19;19922;-73
2023/04/03 08:27:04;;;;;;;3.60;1.15;;;3.30;99.90;;;;;;7399864;19;20240;-72
2023/04/03 08:29:33;;;;;;;2.72;1.23;;;2.80;99.90;;;;;;7401532;19;20391;-72
2023/04/03 08:32:02;;;;;;;3.92;1.23;;;3.80;99.90;;;;;;7402583;19;20259;-72
2023/04/03 08:34:30;;;;;;;3.92;1.38;;;3.00;99.90;;;;;;7401336;19;19939;-72
2023/04/03 08:36:59;;;;;;;4.30;1.00;;;4.10;99.90;;;;;;7397793;19;19970;-71
2023/04/03 08:39:28;;;;;;;2.83;1.27;;;3.00;99.90;;;;;;7398186;19;19949;-72
2023/04/03 08:42:07;;;;;;;2.70;0.88;;;3.60;99.90;;;;;;7400454;19;19971;-72
2023/04/03 08:44:42;;;;;;;3.17;0.85;;;4.00;99.90;;;;;;7399108;19;19922;-72
2023/04/03 08:47:22;;;;;;;4.55;1.05;;;4.50;99.90;;;;;;7400424;19;19914;-72
2023/04/03 08:49:54;;;;;;;2.08;1.00;;;3.60;99.90;;;;;;7399732;19;19922;-72
2023/04/03 08:52:30;;;;;;;3.00;0.85;;;5.00;99.90;;;;;;7398973;19;19922;-72
2023/04/03 08:55:01;;;;;;;5.22;1.25;;;4.70;99.90;;;;;;7399621;19;19925;-73
2023/04/03 08:57:37;;;;;;;2.22;1.00;;;4.70;99.90;;;;;;7396048;19;19923;-76
2023/04/03 09:00:09;;;;;;;3.78;0.95;;;4.70;99.90;;;;;;7398801;19;20416;-76
2023/04/03 09:02:45;;;;;;;3.75;1.42;;;5.00;99.90;;;;;;7399852;19;19922;-76
2023/04/03 09:05:17;;;;;;;2.72;1.10;;;4.30;99.90;;;;;;7401047;19;19929;-77
2023/04/03 09:07:48;;;;;;;2.88;0.80;;;5.50;99.90;;;;;;7399296;19;19918;-76
2023/04/03 09:10:22;;;;;;;3.92;1.10;;;4.90;99.90;;;;;;7411804;19;19919;-76
2023/04/03 09:13:01;;;;;;;2.28;0.70;;;4.40;99.90;;;;;;7408009;19;19926;-76
2023/04/03 09:15:30;;;;;;;2.25;0.90;;;5.70;99.90;;;;;;7404987;19;19922;-76
2023/04/03 09:18:05;;;;;;;2.25;0.60;;;5.90;99.90;;;;;;7403603;19;19919;-76
2023/04/03 09:20:46;;;;;;;3.15;1.02;;;5.80;99.90;;;;;;7404771;19;19923;-76
2023/04/03 09:23:22;;;;;;;3.92;0.90;;;6.10;99.90;;;;;;7406613;19;19933;-76
2023/04/03 09:25:54;;;;;;;4.68;0.90;;;5.30;99.90;;;;;;7404016;19;19978;-77
2023/04/03 09:28:25;;;;;;;2.83;1.13;;;5.60;99.90;;;;;;7406128;19;19961;-76
2023/04/03 09:30:55;;;;;;;4.75;0.70;;;5.00;99.90;;;;;;7406165;19;20283;-76
2023/04/03 09:33:25;;;;;;;4.10;0.73;;;4.90;99.90;;;;;;7405145;19;19948;-76
2023/04/03 09:35:55;;;;;;;1.30;0.55;;;5.80;99.90;;;;;;7403428;19;19918;-76
2023/04/03 09:38:25;;;;;;;4.20;0.90;;;5.80;99.90;;;;;;7406049;19;19915;-76
2023/04/03 09:41:07;;;;;;;2.75;0.80;;;6.80;99.90;;;;;;7406413;19;19933;-76
2023/04/03 09:43:41;;;;;;;3.45;0.80;;;6.00;99.90;;;;;;7406694;19;19919;-76
2023/04/03 09:46:26;;;;;;;3.65;1.10;;;6.00;99.90;;;;;;7405395;19;19926;-76
2023/04/03 09:48:59;;;;;;;1.20;0.35;;;7.00;99.90;;;;;;7405707;19;19927;-76
2023/04/03 09:51:30;;;;;;;0.65;0.40;;;6.20;99.90;;;;;;7403503;19;20289;-76
2023/04/03 09:54:00;;;;;;;1.05;0.55;;;6.40;99.90;;;;;;7403192;19;19930;-77
2023/04/03 09:56:31;;;;;;;3.63;1.80;;;7.10;99.90;;;;;;7402517;19;19955;-77
2023/04/03 09:59:24;;;;;;;0.75;0.40;;;6.40;99.90;;;;;;7405402;19;19946;-77
2023/04/03 10:02:01;;;;;;;1.80;0.68;;;6.50;99.90;;;;;;7404027;19;19918;-77
2023/04/03 10:04:41;;;;;;;1.80;0.45;;;6.60;99.90;;;;;;7405429;19;19918;-77
2023/04/03 10:07:32;;;;;;;0.90;0.43;;;6.70;99.90;;;;;;7396101;19;19922;-77
2023/04/03 10:10:03;;;;;;;1.85;0.68;;;6.70;99.90;;;;;;7401978;19;19996;-77
2023/04/03 10:12:32;;;;;;;3.03;0.60;;;7.90;99.90;;;;;;7404726;19;19918;-78
2023/04/03 10:15:04;;;;;;;3.20;0.88;;;7.10;99.90;;;;;;7396661;19;19918;-78
2023/04/03 10:17:50;;;;;;;4.90;0.82;;;5.90;99.90;;;;;;7394104;19;19919;-77
2023/04/03 10:20:32;;;;;;;1.92;0.63;;;7.00;99.90;;;;;;7398184;19;20356;-78
2023/04/03 10:23:17;;;;;;;1.88;0.50;;;6.90;99.90;;;;;;7396193;19;20336;-78
2023/04/03 10:25:54;;;;;;;1.92;0.60;;;7.00;99.90;;;;;;7399609;19;19919;-77
2023/04/03 10:28:29;;;;;;;1.73;0.80;;;6.90;99.90;;;;;;7398182;19;19924;-76
2023/04/03 10:31:11;;;;;;;0.82;0.45;;;7.20;99.90;;;;;;7398771;19;20340;-77
2023/04/03 10:33:54;;;;;;;1.30;0.45;;;7.30;99.90;;;;;;7397483;19;19922;-77
2023/04/03 10:36:35;;;;;;;0.90;0.30;;;9.00;99.90;;;;;;7398217;19;19930;-79
2023/04/03 10:39:15;;;;;;;2.70;0.60;;;7.30;99.90;;;;;;7400028;19;19928;-78
2023/04/03 10:41:58;;;;;;;1.95;0.40;;;7.30;99.90;;;;;;7397723;19;19929;-77
2023/04/03 10:44:43;;;;;;;1.30;0.60;;;7.50;99.90;;;;;;7400817;19;20283;-76
2023/04/03 10:47:21;;;;;;;1.55;0.82;;;7.60;99.90;;;;;;7399567;19;20276;-76
2023/04/03 10:50:02;;;;;;;1.65;0.70;;;7.60;99.90;;;;;;7398132;19;19924;-75
2023/04/03 10:52:38;;;;;;;1.23;0.40;;;7.70;99.90;;;;;;7399755;19;19937;-76
2023/04/03 10:55:21;;;;;;;2.92;0.50;;;7.80;99.90;;;;;;7399608;19;19915;-76
2023/04/03 10:57:51;;;;;;;1.25;0.65;;;7.80;99.90;;;;;;7398464;19;19929;-74
2023/04/03 11:00:25;;;;;;;1.25;0.50;;;8.10;99.90;;;;;;7399722;19;20356;-75
2023/04/03 11:03:02;;;;;;;1.35;0.35;;;8.00;99.90;;;;;;7398089;19;19934;-75
2023/04/03 11:05:38;;;;;;;2.88;0.57;;;8.20;99.90;;;;;;7400216;19;19926;-75
2023/04/03 11:08:14;;;;;;;2.05;0.40;;;8.20;99.90;;;;;;7398027;19;20347;-75
2023/04/03 11:10:46;;;;;;;2.10;0.50;;;8.50;99.90;;;;;;7398802;19;19937;-75
2023/04/03 11:13:18;;;;;;;2.55;0.50;;;8.60;99.90;;;;;;7397605;19;20320;-74
2023/04/03 11:15:47;;;;;;;3.13;0.70;;;8.60;99.90;;;;;;7397467;19;19915;-75
2023/04/03 11:18:25;;;;;;;2.00;0.57;;;8.80;99.90;;;;;;7396702;19;19922;-75
2023/04/03 11:21:03;;;;;;;1.50;0.70;;;8.70;99.90;;;;;;7398732;19;19926;-75
2023/04/03 11:23:37;;;;;;;3.47;0.50;;;8.90;99.90;;;;;;7396335;19;19930;-75
2023/04/03 11:26:14;;;;;;;1.77;0.50;;;9.10;99.90;;;;;;7398600;19;19934;-75
2023/04/03 11:28:44;;;;;;;1.88;0.50;;;9.00;99.90;;;;;;7392841;19;20398;-77
2023/04/03 11:31:36;;;;;;;1.27;0.38;;;9.20;99.90;;;;;;7394265;19;19926;-77
2023/04/03 11:34:22;;;;;;;3.92;0.40;;;9.20;99.90;;;;;;7397206;19;19922;-77
2023/04/03 11:36:53;;;;;;;2.35;0.40;;;9.20;99.90;;;;;;7396836;19;19922;-77
2023/04/03 11:39:26;;;;;;;3.60;0.57;;;9.30;99.90;;;;;;7394939;19;19923;-77
2023/04/03 11:41:55;;;;;;;2.97;0.65;;;9.30;99.90;;;;;;7397501;19;19930;-78
2023/04/03 11:44:39;;;;;;;2.08;0.47;;;9.40;99.90;;;;;;7397399;19;20010;-77
2023/04/03 11:47:09;;;;;;;3.45;0.77;;;9.50;99.90;;;;;;7396097;19;19942;-77
2023/04/03 11:50:00;;;;;;;1.25;0.32;;;9.60;99.90;;;;;;7397529;19;19929;-77
2023/04/03 11:52:58;;;;;;;1.10;0.63;;;9.60;99.90;;;;;;7397084;19;19933;-77
2023/04/03 11:55:46;;;;;;;1.00;0.30;;;9.80;99.90;;;;;;7395536;19;19918;-78
2023/04/03 11:58:18;;;;;;;1.83;0.60;;;9.90;99.90;;;;;;7395596;19;19919;-77
2023/04/03 12:00:53;;;;;;;2.53;0.90;;;9.90;99.90;;;;;;7396767;19;20611;-77
2023/04/03 12:03:55;;;;;;;1.15;0.70;;;10.00;99.90;;;;;;7395622;19;19927;-77
2023/04/03 12:06:59;;;;;;;0.68;0.50;;;10.00;99.90;;;;;;7394402;19;19933;-77
2023/04/03 12:10:03;;;;;;;0.80;0.40;;;10.20;99.90;;;;;;7395113;19;19925;-76
2023/04/03 12:12:35;;;;;;;0.93;0.40;;;10.00;99.90;;;;;;7396571;19;19923;-77
2023/04/03 12:15:24;;;;;;;1.08;0.50;;;10.10;99.90;;;;;;7396462;19;19927;-77
2023/04/03 12:17:54;;;;;;;2.28;0.77;;;10.20;99.40;;;;;;7397286;19;19922;-77
2023/04/03 12:20:53;;;;;;;2.42;0.50;;;10.40;99.90;;;;;;7397523;19;19926;-77
2023/04/03 12:23:30;;;;;;;2.05;0.50;;;10.50;99.90;;;;;;7396616;19;19923;-77
2023/04/03 12:26:22;;;;;;;1.65;0.60;;;10.60;99.90;;;;;;7395944;19;20559;-78
2023/04/03 12:28:53;;;;;;;1.42;0.50;;;10.60;99.90;;;;;;7394824;19;19945;-77
2023/04/03 12:31:23;;;;;;;3.55;0.70;;;10.70;99.90;;;;;;7394937;19;19942;-76
2023/04/03 12:34:17;;;;;;;0.90;0.50;;;10.80;99.90;;;;;;7394445;19;19935;-78
2023/04/03 12:36:57;;;;;;;2.30;1.20;;;10.60;99.90;;;;;;7394001;19;19941;-77
2023/04/03 12:39:46;;;;;;;6.03;3.03;;;10.80;99.90;;;;;;7394455;19;20331;-77
2023/04/03 12:42:42;;;;;;;2.33;0.57;;;10.90;99.90;;;;;;7396354;19;20571;-78
2023/04/03 12:45:20;;;;;;;1.90;0.50;;;11.20;99.90;;;;;;7400611;19;19922;-78
2023/04/03 12:47:51;;;;;;;1.83;0.52;;;11.10;99.90;;;;;;7401145;19;19918;-77
2023/04/03 12:50:25;;;;;;;3.13;0.63;;;11.10;99.90;;;;;;7400803;19;19923;-78
2023/04/03 12:53:01;;;;;;;3.40;0.73;;;11.30;99.90;;;;;;7401497;19;19922;-77
2023/04/03 12:55:30;;;;;;;0.40;0.28;;;11.30;99.90;;;;;;7401206;19;21208;-78
2023/04/03 12:58:17;;;;;;;1.23;0.40;;;11.40;99.90;;;;;;7400026;19;19929;-78
2023/04/03 13:00:46;;;;;;;1.38;0.60;;;11.60;99.60;;;;;;7403192;19;19970;-78
2023/04/03 13:03:26;;;;;;;4.43;0.55;;;11.60;99.90;;;;;;7401599;19;19926;-79
2023/04/03 13:05:57;;;;;;;2.50;0.70;;;11.70;99.70;;;;;;7400574;19;20249;-78
2023/04/03 13:08:26;;;;;;;2.90;0.60;;;11.80;99.90;;;;;;7402629;19;19926;-78
2023/04/03 13:10:59;;;;;;;2.08;0.40;;;11.90;99.90;;;;;;7400680;19;19922;-77
2023/04/03 13:13:31;;;;;;;1.02;0.50;;;12.30;99.90;;;;;;7393408;19;19915;-78
2023/04/03 13:16:01;;;;;;;1.98;0.88;;;12.20;99.80;;;;;;7388358;19;20260;-78
2023/04/03 13:18:34;;;;;;;0.95;0.40;;;12.30;99.60;;;;;;7395160;19;20308;-78
2023/04/03 13:21:07;;;;;;;4.70;0.80;;;12.30;99.50;;;;;;7403126;19;19919;-78
2023/04/03 13:23:39;;;;;;;0.98;0.60;;;12.50;98.50;;;;;;7405671;19;19915;-78
2023/04/03 13:26:09;;;;;;;1.25;0.60;;;12.40;99.20;;;;;;7404602;19;19918;-78
2023/04/03 13:28:42;;;;;;;1.38;0.50;;;12.60;99.80;;;;;;7403532;19;19962;-75
2023/04/03 13:31:20;;;;;;;1.38;0.50;;;12.80;98.90;;;;;;7405468;19;19953;-75
2023/04/03 13:33:58;;;;;;;2.38;0.50;;;12.90;99.20;;;;;;7407414;19;19926;-74